Time;durP1;ratioP1;P1;durP2;ratioP2;P2;SDS_P1;SDS_P2;PMS_P1;PMS_P2;Temp;Humidity;BMP_temperature;BMP_pressure;BME280_temperature;BME280_humidity;BME280_pressure;Samples;Min_cycle;Max_cycle;Signal;HPM_P1;HPM_P2
2023/10/04 00:01:48;;;;;;;6.68;2.70;;;;;;;;;;5031619;28;20072;-63
2023/10/04 00:04:14;;;;;;;5.32;2.53;;;;;;;;;;5030935;28;20409;-64
2023/10/04 00:06:41;;;;;;;7.97;2.33;;;;;;;;;;5029986;28;20847;-64
2023/10/04 00:09:09;;;;;;;6.15;2.70;;;;;;;;;;5028490;28;20029;-64
2023/10/04 00:11:35;;;;;;;8.52;2.42;;;;;;;;;;5027683;28;20038;-63
2023/10/04 00:14:01;;;;;;;7.95;2.85;;;;;;;;;;5011193;28;20117;-63
2023/10/04 00:16:27;;;;;;;7.55;2.33;;;;;;;;;;5013524;28;20041;-63
2023/10/04 00:18:54;;;;;;;9.32;2.28;;;;;;;;;;5029900;28;20029;-63
2023/10/04 00:21:20;;;;;;;8.82;2.55;;;;;;;;;;5029468;28;20485;-63
2023/10/04 00:23:46;;;;;;;8.02;2.50;;;;;;;;;;5029645;28;20115;-63
2023/10/04 00:26:12;;;;;;;6.43;2.38;;;;;;;;;;5030004;28;20068;-63
2023/10/04 00:28:38;;;;;;;10.52;2.72;;;;;;;;;;5027019;28;20064;-63
2023/10/04 00:31:05;;;;;;;8.80;2.42;;;;;;;;;;5030329;28;20041;-63
2023/10/04 00:33:32;;;;;;;9.23;2.58;;;;;;;;;;5022001;28;20049;-63
2023/10/04 00:36:02;;;;;;;4.68;2.50;;;;;;;;;;5030744;28;20408;-63
2023/10/04 00:38:28;;;;;;;4.05;2.42;;;;;;;;;;5030349;28;20049;-63
2023/10/04 00:40:54;;;;;;;10.35;2.58;;;;;;;;;;5031013;28;20112;-64
2023/10/04 00:43:20;;;;;;;9.38;3.08;;;;;;;;;;5025710;28;20124;-64
2023/10/04 00:45:50;;;;;;;5.55;2.20;;;;;;;;;;5026445;28;20504;-64
2023/10/04 00:48:24;;;;;;;6.97;2.33;;;;;;;;;;5122290;22;20512;-70
2023/10/04 00:50:50;;;;;;;8.65;2.60;;;;;;;;;;5069612;28;20036;-71
2023/10/04 00:53:26;;;;;;;5.75;2.33;;;;;;;;;;5072904;28;20047;-71
2023/10/04 00:55:54;;;;;;;7.25;2.13;;;;;;;;;;5069658;28;20113;-72
2023/10/04 00:58:21;;;;;;;6.80;1.90;;;;;;;;;;5089537;28;20036;-72
2023/10/04 01:00:47;;;;;;;6.05;1.98;;;;;;;;;;5073176;28;20040;-72
2023/10/04 01:03:22;;;;;;;5.45;1.75;;;;;;;;;;5084760;28;20039;-72
2023/10/04 01:05:51;;;;;;;10.13;2.00;;;;;;;;;;5082905;28;20111;-72
2023/10/04 01:08:20;;;;;;;4.90;2.05;;;;;;;;;;5071380;28;20053;-72
2023/10/04 01:10:47;;;;;;;6.80;2.00;;;;;;;;;;5070188;28;20047;-72
2023/10/04 01:13:16;;;;;;;8.05;2.03;;;;;;;;;;5089250;28;20036;-72
2023/10/04 01:15:42;;;;;;;6.20;1.90;;;;;;;;;;5068557;28;20047;-72
2023/10/04 01:18:11;;;;;;;6.95;1.83;;;;;;;;;;5090339;28;20051;-72
2023/10/04 01:20:38;;;;;;;6.25;2.20;;;;;;;;;;5085397;28;20118;-72
2023/10/04 01:23:06;;;;;;;3.67;1.55;;;;;;;;;;5071762;28;20048;-72
2023/10/04 01:25:33;;;;;;;5.05;1.67;;;;;;;;;;5088809;28;20482;-72
2023/10/04 01:28:00;;;;;;;7.47;1.90;;;;;;;;;;5090661;28;20040;-72
2023/10/04 01:30:26;;;;;;;6.53;1.80;;;;;;;;;;5066181;28;20044;-72
2023/10/04 01:32:53;;;;;;;9.25;1.83;;;;;;;;;;5089222;28;20028;-72
2023/10/04 01:35:23;;;;;;;7.47;1.58;;;;;;;;;;5091007;28;20107;-72
2023/10/04 01:37:49;;;;;;;6.03;1.70;;;;;;;;;;5090507;28;20036;-72
2023/10/04 01:40:18;;;;;;;7.05;1.63;;;;;;;;;;5091749;28;20043;-72
2023/10/04 01:42:45;;;;;;;6.82;1.95;;;;;;;;;;5072074;28;20051;-72
2023/10/04 01:45:12;;;;;;;5.32;1.80;;;;;;;;;;5093545;28;20059;-72
2023/10/04 01:47:41;;;;;;;7.68;1.70;;;;;;;;;;5088250;28;20047;-72
2023/10/04 01:50:11;;;;;;;8.07;1.85;;;;;;;;;;5087682;28;20146;-72
2023/10/04 01:52:40;;;;;;;8.45;1.67;;;;;;;;;;5085736;28;20040;-72
2023/10/04 01:55:10;;;;;;;6.32;1.65;;;;;;;;;;5092805;28;20929;-71
2023/10/04 01:57:36;;;;;;;6.80;1.97;;;;;;;;;;5074791;28;20637;-71
2023/10/04 02:00:02;;;;;;;4.82;1.40;;;;;;;;;;5093692;28;20129;-72
2023/10/04 02:02:28;;;;;;;8.10;2.33;;;;;;;;;;5091923;28;20062;-72
2023/10/04 02:04:54;;;;;;;10.18;1.70;;;;;;;;;;5092608;28;20127;-72
2023/10/04 02:07:23;;;;;;;5.25;1.60;;;;;;;;;;5092608;28;20549;-72
2023/10/04 02:09:53;;;;;;;7.25;2.10;;;;;;;;;;5092277;28;20040;-71
2023/10/04 02:12:20;;;;;;;7.45;1.60;;;;;;;;;;5091505;28;20068;-71
2023/10/04 02:14:46;;;;;;;8.40;2.22;;;;;;;;;;5094056;28;20057;-71
2023/10/04 02:17:17;;;;;;;7.93;2.00;;;;;;;;;;5093921;28;20544;-71
2023/10/04 02:19:43;;;;;;;7.35;1.90;;;;;;;;;;5089194;28;20042;-72
2023/10/04 02:22:10;;;;;;;6.20;1.60;;;;;;;;;;5091583;28;20036;-72
2023/10/04 02:24:39;;;;;;;8.20;2.55;;;;;;;;;;5091792;28;20524;-72
2023/10/04 02:27:09;;;;;;;8.20;2.10;;;;;;;;;;5089702;28;20031;-72
2023/10/04 02:29:38;;;;;;;6.85;1.90;;;;;;;;;;5093273;28;20047;-72
2023/10/04 02:32:08;;;;;;;8.82;2.38;;;;;;;;;;5088786;28;20105;-72
2023/10/04 02:34:35;;;;;;;4.77;2.43;;;;;;;;;;5091596;28;20093;-72
2023/10/04 02:37:01;;;;;;;7.50;2.08;;;;;;;;;;5092608;28;20525;-72
2023/10/04 02:39:27;;;;;;;9.40;2.05;;;;;;;;;;5092929;28;20449;-72
2023/10/04 02:41:54;;;;;;;5.20;1.80;;;;;;;;;;5091102;28;20467;-72
2023/10/04 02:44:20;;;;;;;6.57;1.92;;;;;;;;;;5058499;28;20043;-72
2023/10/04 02:46:48;;;;;;;7.47;1.75;;;;;;;;;;5092645;28;20028;-72
2023/10/04 02:49:14;;;;;;;9.70;2.08;;;;;;;;;;5074210;28;20048;-72
2023/10/04 02:51:40;;;;;;;12.57;2.38;;;;;;;;;;5073678;28;20046;-72
2023/10/04 02:54:06;;;;;;;7.25;2.53;;;;;;;;;;5092347;28;20047;-72
2023/10/04 02:56:41;;;;;;;6.55;2.30;;;;;;;;;;5092776;28;20036;-72
2023/10/04 02:59:07;;;;;;;6.05;2.10;;;;;;;;;;5091545;28;20494;-72
2023/10/04 03:01:33;;;;;;;10.43;2.65;;;;;;;;;;5082772;28;20039;-72
2023/10/04 03:03:59;;;;;;;8.05;2.33;;;;;;;;;;5092502;28;20038;-72
2023/10/04 03:06:26;;;;;;;5.00;2.28;;;;;;;;;;5092573;28;20458;-72
2023/10/04 03:08:52;;;;;;;8.40;2.35;;;;;;;;;;5092364;28;20032;-72
2023/10/04 03:11:19;;;;;;;7.28;2.25;;;;;;;;;;5092692;28;20563;-72
2023/10/04 03:13:47;;;;;;;9.65;2.38;;;;;;;;;;5074170;28;20090;-72
2023/10/04 03:16:14;;;;;;;7.03;2.55;;;;;;;;;;5084456;28;20671;-72
2023/10/04 03:18:40;;;;;;;10.75;2.65;;;;;;;;;;5091614;28;20119;-72
2023/10/04 03:23:34;;;;;;;8.23;2.38;;;;;;;;;;5091581;28;20512;-72
2023/10/04 03:26:01;;;;;;;7.25;2.22;;;;;;;;;;5092238;28;20337;-72
2023/10/04 03:28:30;;;;;;;7.45;2.15;;;;;;;;;;5092045;28;20069;-71
2023/10/04 03:30:57;;;;;;;7.15;2.13;;;;;;;;;;5092012;28;20395;-72
2023/10/04 03:33:23;;;;;;;7.70;2.15;;;;;;;;;;5087992;28;20036;-72
2023/10/04 03:35:49;;;;;;;7.97;2.63;;;;;;;;;;5073949;28;20127;-72
2023/10/04 03:38:15;;;;;;;9.05;2.72;;;;;;;;;;5091662;28;20477;-72
2023/10/04 03:40:41;;;;;;;9.48;2.30;;;;;;;;;;5072658;28;20039;-71
2023/10/04 03:43:08;;;;;;;9.15;2.38;;;;;;;;;;5091876;28;20036;-71
2023/10/04 03:45:39;;;;;;;8.63;2.25;;;;;;;;;;5091995;28;20107;-72
2023/10/04 03:48:10;;;;;;;10.05;2.55;;;;;;;;;;5073715;28;20085;-72
2023/10/04 03:50:36;;;;;;;10.68;2.70;;;;;;;;;;5088756;28;20043;-72
2023/10/04 03:53:02;;;;;;;5.95;2.13;;;;;;;;;;5090848;28;20420;-72
2023/10/04 03:55:28;;;;;;;8.60;2.15;;;;;;;;;;5073835;28;20042;-72
2023/10/04 03:57:55;;;;;;;6.88;1.98;;;;;;;;;;5073598;28;20040;-72
2023/10/04 04:00:23;;;;;;;7.22;2.13;;;;;;;;;;5086071;28;20039;-72
2023/10/04 04:02:50;;;;;;;7.97;2.53;;;;;;;;;;5086535;28;20068;-72
2023/10/04 04:05:21;;;;;;;9.52;2.55;;;;;;;;;;5090414;28;20097;-72
2023/10/04 04:07:46;;;;;;;8.43;2.15;;;;;;;;;;5081413;28;21267;-72
2023/10/04 04:10:14;;;;;;;8.90;2.35;;;;;;;;;;5086588;28;20085;-72
2023/10/04 04:12:40;;;;;;;5.90;1.90;;;;;;;;;;5091859;28;20432;-71
2023/10/04 04:15:10;;;;;;;7.45;2.30;;;;;;;;;;5084695;28;20040;-71
2023/10/04 04:17:39;;;;;;;8.60;2.40;;;;;;;;;;5082762;28;20041;-71
2023/10/04 04:20:19;;;;;;;9.13;2.47;;;;;;;;;;5085859;28;20043;-71
2023/10/04 04:22:50;;;;;;;7.03;2.00;;;;;;;;;;5078512;28;20043;-71
2023/10/04 04:25:17;;;;;;;6.97;2.10;;;;;;;;;;5088505;28;20036;-72
2023/10/04 04:27:46;;;;;;;11.15;2.47;;;;;;;;;;5085898;28;20040;-71
2023/10/04 04:30:23;;;;;;;11.32;3.03;;;;;;;;;;5090644;28;20032;-71
2023/10/04 04:32:53;;;;;;;9.45;1.95;;;;;;;;;;5087717;28;20040;-71
2023/10/04 04:38:22;;;;;;;8.55;2.45;;;;;;;;;;5090336;28;20044;-71
2023/10/04 04:40:54;;;;;;;9.30;2.72;;;;;;;;;;5087380;28;20057;-71
2023/10/04 04:45:53;;;;;;;9.27;2.50;;;;;;;;;;5090451;28;20071;-71
2023/10/04 04:48:23;;;;;;;8.85;2.05;;;;;;;;;;5090070;28;20145;-71
2023/10/04 04:50:50;;;;;;;10.15;2.97;;;;;;;;;;5089850;28;20036;-71
2023/10/04 04:53:18;;;;;;;13.68;2.38;;;;;;;;;;5090677;28;20040;-71
2023/10/04 04:55:44;;;;;;;7.15;2.40;;;;;;;;;;5086226;28;20040;-71
2023/10/04 04:58:13;;;;;;;8.07;2.35;;;;;;;;;;5088794;28;20048;-71
2023/10/04 05:00:42;;;;;;;10.90;2.25;;;;;;;;;;5089468;28;20464;-71
2023/10/04 05:03:08;;;;;;;12.38;2.58;;;;;;;;;;5090805;28;20078;-71
2023/10/04 05:05:34;;;;;;;7.90;2.53;;;;;;;;;;5088578;28;20139;-71
2023/10/04 05:08:00;;;;;;;7.20;2.10;;;;;;;;;;5089962;28;20119;-71
2023/10/04 05:10:34;;;;;;;9.38;2.65;;;;;;;;;;5089813;28;20036;-71
2023/10/04 05:13:00;;;;;;;8.77;2.35;;;;;;;;;;5089829;28;20078;-71
2023/10/04 05:15:33;;;;;;;8.68;2.38;;;;;;;;;;5089702;28;20055;-71
2023/10/04 05:18:15;;;;;;;12.20;2.42;;;;;;;;;;5092702;28;20040;-71
2023/10/04 05:20:42;;;;;;;12.38;2.55;;;;;;;;;;5094421;28;20036;-71
2023/10/04 05:23:09;;;;;;;8.05;2.45;;;;;;;;;;5091412;28;20032;-71
2023/10/04 05:25:36;;;;;;;7.25;1.88;;;;;;;;;;5089943;28;20101;-71
2023/10/04 05:28:06;;;;;;;7.22;2.17;;;;;;;;;;5084674;28;20067;-71
2023/10/04 05:30:33;;;;;;;8.53;2.53;;;;;;;;;;5073214;28;20059;-71
2023/10/04 05:32:59;;;;;;;8.57;2.35;;;;;;;;;;5094283;28;20043;-71
2023/10/04 05:35:26;;;;;;;7.88;2.40;;;;;;;;;;5091669;28;20395;-71
2023/10/04 05:37:52;;;;;;;11.88;2.95;;;;;;;;;;5087021;28;20067;-72
2023/10/04 05:40:27;;;;;;;8.10;2.30;;;;;;;;;;5090728;28;20036;-72
2023/10/04 05:42:54;;;;;;;12.02;2.97;;;;;;;;;;5090318;28;20036;-71
2023/10/04 05:45:23;;;;;;;7.40;2.40;;;;;;;;;;5092523;28;20036;-72
2023/10/04 05:47:50;;;;;;;8.40;2.40;;;;;;;;;;5092521;28;20528;-72
2023/10/04 05:50:21;;;;;;;14.20;2.40;;;;;;;;;;5091005;28;20397;-72
2023/10/04 05:52:50;;;;;;;7.88;2.70;;;;;;;;;;5091420;28;20040;-72
2023/10/04 05:55:22;;;;;;;6.57;2.40;;;;;;;;;;5091266;28;20089;-72
2023/10/04 05:57:52;;;;;;;10.40;2.40;;;;;;;;;;5087002;28;20101;-72
2023/10/04 06:00:23;;;;;;;10.77;2.25;;;;;;;;;;5090676;28;20052;-72
2023/10/04 06:02:58;;;;;;;7.70;2.17;;;;;;;;;;5088751;28;20086;-72
2023/10/04 06:05:25;;;;;;;10.25;2.50;;;;;;;;;;5073474;28;20047;-72
2023/10/04 06:07:51;;;;;;;8.88;2.78;;;;;;;;;;5093151;28;20046;-71
2023/10/04 06:10:18;;;;;;;9.48;2.33;;;;;;;;;;5073563;28;20032;-71
2023/10/04 06:12:48;;;;;;;8.15;2.47;;;;;;;;;;5092855;28;20123;-71
2023/10/04 06:15:16;;;;;;;8.13;2.50;;;;;;;;;;5091522;28;20050;-72
2023/10/04 06:17:43;;;;;;;11.77;3.20;;;;;;;;;;5089633;28;20039;-71
2023/10/04 06:22:52;;;;;;;8.38;2.92;;;;;;;;;;5091643;28;20097;-71
2023/10/04 06:25:19;;;;;;;7.10;2.58;;;;;;;;;;5093163;28;20040;-71
2023/10/04 06:27:45;;;;;;;9.00;2.60;;;;;;;;;;5091160;28;20474;-71
2023/10/04 06:30:12;;;;;;;14.00;3.00;;;;;;;;;;5091273;28;20040;-71
2023/10/04 06:32:38;;;;;;;8.15;2.53;;;;;;;;;;5091446;28;20047;-71
2023/10/04 06:35:06;;;;;;;9.82;2.80;;;;;;;;;;5060437;28;20109;-71
2023/10/04 06:37:32;;;;;;;7.95;2.65;;;;;;;;;;5088116;28;20434;-71
2023/10/04 06:39:58;;;;;;;10.85;2.58;;;;;;;;;;5076843;28;20047;-71
2023/10/04 06:42:24;;;;;;;7.07;2.60;;;;;;;;;;5070468;28;20482;-71
2023/10/04 06:44:50;;;;;;;8.02;2.42;;;;;;;;;;5085754;28;20100;-71
2023/10/04 06:47:17;;;;;;;7.10;2.47;;;;;;;;;;5105893;22;20040;-63
2023/10/04 06:49:43;;;;;;;7.93;2.70;;;;;;;;;;5088389;28;20044;-67
2023/10/04 06:52:12;;;;;;;13.10;3.05;;;;;;;;;;5068630;28;20032;-66
2023/10/04 06:54:38;;;;;;;12.55;2.63;;;;;;;;;;5093993;28;20032;-68
2023/10/04 06:57:04;;;;;;;12.13;2.70;;;;;;;;;;5105987;22;20032;-63
2023/10/04 06:59:30;;;;;;;8.32;2.78;;;;;;;;;;5091462;28;20032;-62
2023/10/04 07:01:56;;;;;;;11.73;3.08;;;;;;;;;;5090576;28;20040;-62
2023/10/04 07:04:22;;;;;;;9.48;2.75;;;;;;;;;;5081004;28;20115;-62
2023/10/04 07:06:48;;;;;;;11.15;2.80;;;;;;;;;;5083234;28;20036;-62
2023/10/04 07:09:14;;;;;;;8.50;2.60;;;;;;;;;;5084611;28;20032;-62
2023/10/04 07:11:40;;;;;;;12.23;3.03;;;;;;;;;;5081308;28;20060;-62
2023/10/04 07:14:06;;;;;;;12.02;2.63;;;;;;;;;;5081174;28;20097;-62
2023/10/04 07:16:33;;;;;;;7.53;2.30;;;;;;;;;;5085863;28;20035;-62
2023/10/04 07:18:59;;;;;;;6.78;2.35;;;;;;;;;;5090666;28;20130;-62
2023/10/04 07:21:26;;;;;;;7.47;2.72;;;;;;;;;;5087362;28;20488;-62
2023/10/04 07:23:52;;;;;;;12.65;2.97;;;;;;;;;;5084938;28;20414;-62
2023/10/04 07:26:19;;;;;;;11.90;3.22;;;;;;;;;;5085007;28;20086;-63
2023/10/04 07:28:46;;;;;;;12.18;3.15;;;;;;;;;;5087956;28;20476;-63
2023/10/04 07:31:12;;;;;;;10.73;3.22;;;;;;;;;;5089922;28;20050;-63
2023/10/04 07:33:38;;;;;;;10.50;2.60;;;;;;;;;;5083738;28;20411;-63
2023/10/04 07:36:04;;;;;;;12.10;2.42;;;;;;;;;;5063647;28;20078;-63
2023/10/04 07:38:31;;;;;;;10.02;2.80;;;;;;;;;;5090041;28;20415;-63
2023/10/04 07:40:57;;;;;;;10.93;2.50;;;;;;;;;;5086141;28;20048;-63
2023/10/04 07:43:23;;;;;;;8.02;3.17;;;;;;;;;;5079667;28;20044;-63
2023/10/04 07:45:49;;;;;;;9.68;2.75;;;;;;;;;;5088357;28;20043;-63
2023/10/04 07:48:17;;;;;;;8.07;2.55;;;;;;;;;;5085582;28;20123;-63
2023/10/04 07:50:43;;;;;;;10.23;2.80;;;;;;;;;;5084387;28;20124;-63
2023/10/04 07:53:09;;;;;;;12.13;2.70;;;;;;;;;;5084690;28;20032;-63
2023/10/04 07:55:36;;;;;;;12.27;2.90;;;;;;;;;;5085589;28;20046;-63
2023/10/04 07:58:06;;;;;;;9.77;2.80;;;;;;;;;;5084712;28;20048;-63
2023/10/04 08:00:36;;;;;;;12.15;2.70;;;;;;;;;;5090461;28;20036;-63
2023/10/04 08:03:03;;;;;;;7.43;2.58;;;;;;;;;;5079267;28;20039;-62
2023/10/04 08:05:31;;;;;;;8.82;2.78;;;;;;;;;;5082865;28;20036;-63
2023/10/04 08:08:01;;;;;;;10.00;3.25;;;;;;;;;;5084866;28;20040;-62
2023/10/04 08:10:32;;;;;;;10.80;2.92;;;;;;;;;;5088396;28;20564;-62
2023/10/04 08:12:59;;;;;;;10.88;3.13;;;;;;;;;;5083983;28;20040;-62
2023/10/04 08:15:26;;;;;;;12.50;2.83;;;;;;;;;;5066791;28;20067;-62
2023/10/04 08:17:53;;;;;;;8.63;2.30;;;;;;;;;;5085221;28;20122;-62
2023/10/04 08:20:20;;;;;;;9.50;3.10;;;;;;;;;;5088315;28;20057;-63
2023/10/04 08:22:46;;;;;;;9.00;3.25;;;;;;;;;;5085542;28;20054;-63
2023/10/04 08:25:16;;;;;;;9.73;2.72;;;;;;;;;;5081768;28;20043;-62
2023/10/04 08:27:42;;;;;;;9.77;2.97;;;;;;;;;;5086176;28;20032;-63
2023/10/04 08:30:12;;;;;;;10.15;2.55;;;;;;;;;;5084302;28;20036;-62
2023/10/04 08:32:40;;;;;;;9.95;2.97;;;;;;;;;;5087399;28;20538;-63
2023/10/04 08:35:06;;;;;;;9.25;3.40;;;;;;;;;;5085235;28;20506;-62
2023/10/04 08:37:32;;;;;;;11.10;3.10;;;;;;;;;;5081133;28;20048;-62
2023/10/04 08:39:58;;;;;;;10.35;2.63;;;;;;;;;;5084878;28;20412;-62
2023/10/04 08:42:24;;;;;;;9.27;2.90;;;;;;;;;;5088043;28;20044;-62
2023/10/04 08:44:51;;;;;;;8.60;2.95;;;;;;;;;;5089387;28;20100;-62
2023/10/04 08:47:17;;;;;;;12.68;3.33;;;;;;;;;;5081314;28;20044;-62
2023/10/04 08:49:50;;;;;;;9.60;2.95;;;;;;;;;;5087609;28;20048;-62
2023/10/04 08:52:27;;;;;;;12.45;3.50;;;;;;;;;;5085288;28;20073;-62
2023/10/04 08:54:58;;;;;;;13.05;3.50;;;;;;;;;;5085698;28;20488;-62
2023/10/04 08:57:24;;;;;;;9.68;3.28;;;;;;;;;;5082658;28;20071;-62
2023/10/04 08:59:51;;;;;;;14.05;3.33;;;;;;;;;;5084298;28;20036;-62
2023/10/04 09:02:19;;;;;;;13.32;3.08;;;;;;;;;;5089124;28;20556;-62
2023/10/04 09:04:46;;;;;;;14.73;3.10;;;;;;;;;;5087578;28;20101;-62
2023/10/04 09:07:12;;;;;;;10.80;3.30;;;;;;;;;;5085795;28;20110;-62
2023/10/04 09:09:39;;;;;;;11.23;2.90;;;;;;;;;;5088130;28;20036;-62
2023/10/04 09:12:07;;;;;;;11.32;3.15;;;;;;;;;;5088993;28;20635;-62
2023/10/04 09:14:33;;;;;;;10.95;3.20;;;;;;;;;;5089701;28;20119;-63
2023/10/04 09:17:06;;;;;;;10.00;3.13;;;;;;;;;;5084877;28;20044;-62
2023/10/04 09:19:32;;;;;;;11.70;3.25;;;;;;;;;;5082975;28;20123;-63
2023/10/04 09:22:04;;;;;;;9.05;2.65;;;;;;;;;;5087176;28;20048;-62
2023/10/04 09:24:30;;;;;;;12.60;3.15;;;;;;;;;;5089470;28;20450;-63
2023/10/04 09:26:56;;;;;;;12.00;3.30;;;;;;;;;;5085648;28;20499;-62
2023/10/04 09:29:32;;;;;;;12.30;3.42;;;;;;;;;;5087420;28;20085;-63
2023/10/04 09:31:59;;;;;;;12.88;3.33;;;;;;;;;;5089166;28;20032;-63
2023/10/04 09:34:25;;;;;;;11.35;3.72;;;;;;;;;;5085179;28;20036;-63
2023/10/04 09:36:54;;;;;;;12.30;3.03;;;;;;;;;;5090298;28;20043;-63
2023/10/04 09:39:31;;;;;;;9.30;2.95;;;;;;;;;;5087871;28;20283;-63
2023/10/04 09:42:00;;;;;;;11.05;3.30;;;;;;;;;;5067505;28;20043;-63
2023/10/04 09:44:30;;;;;;;14.75;3.35;;;;;;;;;;5089670;28;20530;-63
2023/10/04 09:47:00;;;;;;;9.27;3.30;;;;;;;;;;5084961;28;20040;-63
2023/10/04 09:49:35;;;;;;;13.70;3.17;;;;;;;;;;5078207;28;20047;-63
2023/10/04 09:52:06;;;;;;;9.52;3.17;;;;;;;;;;5087364;28;20120;-63
2023/10/04 09:54:34;;;;;;;7.32;2.72;;;;;;;;;;5084480;28;20557;-63
2023/10/04 09:57:00;;;;;;;14.35;3.38;;;;;;;;;;5082636;28;20118;-63
2023/10/04 09:59:26;;;;;;;9.95;3.08;;;;;;;;;;5088928;28;20403;-63
2023/10/04 10:01:56;;;;;;;13.40;3.20;;;;;;;;;;5087648;28;20043;-63
2023/10/04 10:04:27;;;;;;;11.52;2.80;;;;;;;;;;5090028;28;20036;-63
2023/10/04 10:07:00;;;;;;;8.25;2.80;;;;;;;;;;5092890;28;20119;-63
2023/10/04 10:09:28;;;;;;;11.40;3.47;;;;;;;;;;5088326;28;20048;-63
2023/10/04 10:11:55;;;;;;;11.20;3.20;;;;;;;;;;5092231;28;20157;-63
2023/10/04 10:14:22;;;;;;;11.73;3.03;;;;;;;;;;5087192;28;20503;-62
2023/10/04 10:16:53;;;;;;;8.80;2.67;;;;;;;;;;5086798;28;20107;-63
2023/10/04 10:19:19;;;;;;;12.15;3.50;;;;;;;;;;5090265;28;20040;-62
2023/10/04 10:22:07;;;;;;;10.00;3.42;;;;;;;;;;5091667;28;20036;-63
2023/10/04 10:24:33;;;;;;;11.65;3.10;;;;;;;;;;5090517;28;20408;-63
2023/10/04 10:27:02;;;;;;;12.38;2.85;;;;;;;;;;5091410;28;20165;-63
2023/10/04 10:29:31;;;;;;;11.38;3.10;;;;;;;;;;5087592;28;20040;-62
2023/10/04 10:31:57;;;;;;;10.65;2.70;;;;;;;;;;5093625;28;20035;-62
2023/10/04 10:34:23;;;;;;;10.82;3.33;;;;;;;;;;5091437;28;20067;-62
2023/10/04 10:37:08;;;;;;;10.85;2.83;;;;;;;;;;5090090;28;20123;-62
2023/10/04 10:39:42;;;;;;;14.02;3.78;;;;;;;;;;5085854;28;20036;-63
2023/10/04 10:42:11;;;;;;;12.15;3.60;;;;;;;;;;5082283;28;20039;-63
2023/10/04 10:44:39;;;;;;;10.98;3.45;;;;;;;;;;5088044;28;20059;-62
2023/10/04 10:47:08;;;;;;;10.27;3.22;;;;;;;;;;5089225;28;20043;-62
2023/10/04 10:49:37;;;;;;;12.02;4.13;;;;;;;;;;5089754;28;20044;-63
2023/10/04 10:52:03;;;;;;;9.85;2.85;;;;;;;;;;5068181;28;20074;-62
2023/10/04 10:54:29;;;;;;;12.60;3.45;;;;;;;;;;5091195;28;20117;-62
2023/10/04 10:56:56;;;;;;;10.68;3.10;;;;;;;;;;5085590;28;20488;-62
2023/10/04 10:59:22;;;;;;;13.88;3.20;;;;;;;;;;5088218;28;20044;-62
2023/10/04 11:01:48;;;;;;;11.57;3.45;;;;;;;;;;5090694;28;20115;-62
2023/10/04 11:04:16;;;;;;;13.65;3.55;;;;;;;;;;5085424;28;20033;-62
2023/10/04 11:06:43;;;;;;;8.98;3.00;;;;;;;;;;5088626;28;20032;-62
2023/10/04 11:09:09;;;;;;;13.18;3.95;;;;;;;;;;5084263;28;20162;-63
2023/10/04 11:11:35;;;;;;;13.98;3.85;;;;;;;;;;5087726;28;20104;-62
2023/10/04 11:14:05;;;;;;;13.77;3.70;;;;;;;;;;5089288;28;20040;-62
2023/10/04 11:16:33;;;;;;;11.18;3.50;;;;;;;;;;5082750;28;20032;-62
2023/10/04 11:19:04;;;;;;;13.85;3.35;;;;;;;;;;5085733;28;20044;-62
2023/10/04 11:21:30;;;;;;;16.15;4.15;;;;;;;;;;5085570;28;20043;-63
2023/10/04 11:24:01;;;;;;;14.07;3.70;;;;;;;;;;5089351;28;20044;-62
2023/10/04 11:26:30;;;;;;;12.98;3.63;;;;;;;;;;5083548;28;20036;-62
2023/10/04 11:28:56;;;;;;;11.63;3.63;;;;;;;;;;5063369;28;20062;-62
2023/10/04 11:31:23;;;;;;;10.43;3.22;;;;;;;;;;5088287;28;20077;-62
2023/10/04 11:33:53;;;;;;;11.73;3.67;;;;;;;;;;5085668;28;20395;-62
2023/10/04 11:36:23;;;;;;;13.82;3.88;;;;;;;;;;5081317;28;20076;-62
2023/10/04 11:38:52;;;;;;;11.00;3.17;;;;;;;;;;5086040;28;20044;-62
2023/10/04 11:41:22;;;;;;;10.07;3.78;;;;;;;;;;5084237;28;20028;-62
2023/10/04 11:43:51;;;;;;;13.38;3.67;;;;;;;;;;5087265;28;20032;-62
2023/10/04 11:46:17;;;;;;;11.38;3.55;;;;;;;;;;5081969;28;20044;-62
2023/10/04 11:48:47;;;;;;;13.95;3.30;;;;;;;;;;5081000;28;20028;-62
2023/10/04 11:51:26;;;;;;;10.35;4.28;;;;;;;;;;5084463;28;20040;-62
2023/10/04 11:53:54;;;;;;;16.60;3.97;;;;;;;;;;5084364;28;20032;-62
2023/10/04 11:56:20;;;;;;;14.85;4.60;;;;;;;;;;5083563;28;20037;-62
2023/10/04 11:58:47;;;;;;;11.93;3.83;;;;;;;;;;5084618;28;20119;-62
2023/10/04 12:01:17;;;;;;;10.30;3.35;;;;;;;;;;5084295;28;20127;-62
2023/10/04 12:03:43;;;;;;;14.43;4.15;;;;;;;;;;5080686;28;20051;-62
2023/10/04 12:06:09;;;;;;;12.57;3.55;;;;;;;;;;5085136;28;20044;-62
2023/10/04 12:08:36;;;;;;;10.27;3.28;;;;;;;;;;5083139;28;20035;-62
2023/10/04 12:11:13;;;;;;;15.18;4.13;;;;;;;;;;5065574;28;20036;-62
2023/10/04 12:13:39;;;;;;;11.90;3.42;;;;;;;;;;5087343;28;20064;-62
2023/10/04 12:16:05;;;;;;;11.77;3.50;;;;;;;;;;5089369;28;20048;-62
2023/10/04 12:18:32;;;;;;;11.75;3.28;;;;;;;;;;5080891;28;20032;-62
2023/10/04 12:20:58;;;;;;;16.23;3.90;;;;;;;;;;5088820;28;20039;-62
2023/10/04 12:23:24;;;;;;;10.45;3.30;;;;;;;;;;5087850;28;20043;-62
2023/10/04 12:25:50;;;;;;;12.60;3.70;;;;;;;;;;5080588;28;20149;-62
2023/10/04 12:28:16;;;;;;;14.30;4.35;;;;;;;;;;5087759;28;20054;-62
2023/10/04 12:30:42;;;;;;;9.35;3.50;;;;;;;;;;5090433;28;20036;-62
2023/10/04 13:00:16;;;;;;;13.43;3.60;;;;;;;;;;5091697;28;20070;-73
2023/10/04 13:02:43;;;;;;;15.43;3.28;;;;;;;;;;5073283;28;20032;-72
2023/10/04 13:05:13;;;;;;;7.35;2.95;;;;;;;;;;5073149;28;20048;-72
2023/10/04 13:07:40;;;;;;;12.35;3.85;;;;;;;;;;5068761;28;20044;-72
2023/10/04 13:10:09;;;;;;;10.40;3.95;;;;;;;;;;5068757;28;20493;-72
2023/10/04 13:12:39;;;;;;;12.65;3.13;;;;;;;;;;5053165;28;20036;-72
2023/10/04 13:15:06;;;;;;;10.73;3.08;;;;;;;;;;5087172;28;20048;-71
2023/10/04 13:17:32;;;;;;;10.68;3.33;;;;;;;;;;5079895;28;20045;-71
2023/10/04 13:20:02;;;;;;;11.60;3.88;;;;;;;;;;5070899;28;20039;-71
2023/10/04 13:22:29;;;;;;;10.10;2.90;;;;;;;;;;5070810;28;20055;-71
2023/10/04 13:24:55;;;;;;;9.88;3.20;;;;;;;;;;5091181;28;20166;-71
2023/10/04 13:27:21;;;;;;;10.10;2.97;;;;;;;;;;5090575;28;20040;-71
2023/10/04 13:29:47;;;;;;;9.80;3.17;;;;;;;;;;5071003;28;20111;-71
2023/10/04 13:32:18;;;;;;;11.95;3.17;;;;;;;;;;5090134;28;20094;-72
2023/10/04 13:34:44;;;;;;;7.75;2.70;;;;;;;;;;5062624;28;20098;-73
2023/10/04 13:37:11;;;;;;;9.75;3.20;;;;;;;;;;5092877;28;20405;-71
2023/10/04 13:39:37;;;;;;;9.40;2.92;;;;;;;;;;5090472;28;20044;-71
2023/10/04 13:42:03;;;;;;;13.57;3.03;;;;;;;;;;5088624;28;20397;-72
2023/10/04 13:44:32;;;;;;;8.73;2.85;;;;;;;;;;5092921;28;20047;-72
2023/10/04 13:46:58;;;;;;;10.55;3.13;;;;;;;;;;5092353;28;20481;-72
2023/10/04 13:49:26;;;;;;;9.50;3.30;;;;;;;;;;5093694;28;20040;-72
2023/10/04 13:51:54;;;;;;;11.63;3.38;;;;;;;;;;5093361;28;20422;-72
2023/10/04 13:54:21;;;;;;;8.70;2.70;;;;;;;;;;5094259;28;20040;-72
2023/10/04 13:56:47;;;;;;;9.50;2.80;;;;;;;;;;5093276;28;20032;-72
2023/10/04 13:59:13;;;;;;;14.35;3.20;;;;;;;;;;5075814;28;20490;-72
2023/10/04 14:01:41;;;;;;;11.60;3.92;;;;;;;;;;5074076;28;20036;-72
2023/10/04 14:04:09;;;;;;;12.07;3.28;;;;;;;;;;5086198;28;20093;-72
2023/10/04 14:06:35;;;;;;;11.98;2.90;;;;;;;;;;5073778;28;20054;-72
2023/10/04 14:09:10;;;;;;;11.15;3.33;;;;;;;;;;5071738;28;20036;-72
2023/10/04 14:11:37;;;;;;;9.38;3.17;;;;;;;;;;5070769;28;20048;-71
2023/10/04 14:14:07;;;;;;;9.77;3.15;;;;;;;;;;5091815;28;20047;-71
2023/10/04 14:16:33;;;;;;;9.35;3.22;;;;;;;;;;5092246;28;20043;-71
2023/10/04 14:18:59;;;;;;;9.57;3.95;;;;;;;;;;5093457;28;20471;-71
2023/10/04 14:21:25;;;;;;;9.48;3.40;;;;;;;;;;5082749;28;20477;-71
2023/10/04 14:23:51;;;;;;;8.45;3.67;;;;;;;;;;5091402;28;20044;-71
2023/10/04 14:26:20;;;;;;;14.23;3.88;;;;;;;;;;5073711;28;20533;-71
2023/10/04 14:28:46;;;;;;;11.50;3.65;;;;;;;;;;5078996;28;20569;-71
2023/10/04 14:31:13;;;;;;;9.13;3.83;;;;;;;;;;5091717;28;20111;-71
2023/10/04 14:33:40;;;;;;;18.02;3.55;;;;;;;;;;5094166;28;20074;-71
2023/10/04 14:36:06;;;;;;;14.05;3.67;;;;;;;;;;5093491;28;20143;-71
2023/10/04 14:38:35;;;;;;;11.85;3.95;;;;;;;;;;5093672;28;20032;-71
2023/10/04 14:41:04;;;;;;;10.38;4.22;;;;;;;;;;5084696;28;20084;-71
2023/10/04 14:43:32;;;;;;;12.90;4.43;;;;;;;;;;5091090;28;20043;-72
2023/10/04 14:46:03;;;;;;;12.60;3.97;;;;;;;;;;5090490;28;20059;-71
2023/10/04 14:48:29;;;;;;;12.60;3.78;;;;;;;;;;5086567;28;20094;-71
2023/10/04 14:50:56;;;;;;;9.77;4.05;;;;;;;;;;5090905;28;20036;-71
2023/10/04 14:53:22;;;;;;;17.85;4.65;;;;;;;;;;5093355;28;20036;-71
2023/10/04 14:55:48;;;;;;;9.02;4.00;;;;;;;;;;5067988;28;20079;-71
2023/10/04 14:58:14;;;;;;;11.23;3.97;;;;;;;;;;5087266;28;20036;-71
2023/10/04 15:00:41;;;;;;;9.82;3.75;;;;;;;;;;5073911;28;20036;-71
2023/10/04 15:03:07;;;;;;;12.10;3.75;;;;;;;;;;5074819;28;20485;-71
2023/10/04 15:05:33;;;;;;;11.32;4.07;;;;;;;;;;5074124;28;20054;-71
2023/10/04 15:07:59;;;;;;;12.63;4.00;;;;;;;;;;5090003;28;20058;-71
2023/10/04 15:10:25;;;;;;;9.50;3.60;;;;;;;;;;5072612;28;20070;-71
2023/10/04 15:12:53;;;;;;;11.77;4.03;;;;;;;;;;5073806;28;20055;-71
2023/10/04 15:15:19;;;;;;;11.93;3.72;;;;;;;;;;5090103;28;20139;-71
2023/10/04 15:17:45;;;;;;;11.65;4.10;;;;;;;;;;5089364;28;20040;-70